sensor_id;sensor_type;location;lat;lon;timestamp;temperature;humidity
10846;DHT22;5476;51.540;7.186;2023-04-30T01:10:06;8.50;99.90
10846;DHT22;5476;51.540;7.186;2023-04-30T01:13:00;9.70;99.90
10846;DHT22;5476;51.540;7.186;2023-04-30T01:15:55;10.90;99.90
10846;DHT22;5476;51.540;7.186;2023-04-30T01:18:41;9.30;99.90
10846;DHT22;5476;51.540;7.186;2023-04-30T01:21:25;10.00;99.90
10846;DHT22;5476;51.540;7.186;2023-04-30T01:30:42;9.70;99.90
10846;DHT22;5476;51.540;7.186;2023-04-30T01:33:23;9.60;99.90
10846;DHT22;5476;51.540;7.186;2023-04-30T01:39:10;9.70;99.90
10846;DHT22;5476;51.540;7.186;2023-04-30T01:41:49;10.60;99.90
10846;DHT22;5476;51.540;7.186;2023-04-30T01:44:36;9.50;99.90
10846;DHT22;5476;51.540;7.186;2023-04-30T01:47:21;9.50;99.90
10846;DHT22;5476;51.540;7.186;2023-04-30T01:50:18;9.60;99.90
10846;DHT22;5476;51.540;7.186;2023-04-30T01:52:51;9.60;99.90
10846;DHT22;5476;51.540;7.186;2023-04-30T01:55:27;9.50;99.90
10846;DHT22;5476;51.540;7.186;2023-04-30T01:57:59;8.30;99.90
10846;DHT22;5476;51.540;7.186;2023-04-30T02:00:34;9.50;99.90
10846;DHT22;5476;51.540;7.186;2023-04-30T02:03:09;8.40;99.90
10846;DHT22;5476;51.540;7.186;2023-04-30T02:05:38;9.80;99.90
10846;DHT22;5476;51.540;7.186;2023-04-30T02:08:09;9.30;99.90
10846;DHT22;5476;51.540;7.186;2023-04-30T02:10:44;10.00;99.90
10846;DHT22;5476;51.540;7.186;2023-04-30T02:13:16;8.90;99.90
10846;DHT22;5476;51.540;7.186;2023-04-30T02:15:54;10.00;99.90
10846;DHT22;5476;51.540;7.186;2023-04-30T02:18:28;10.00;99.90
10846;DHT22;5476;51.540;7.186;2023-04-30T02:20:59;8.70;99.90
10846;DHT22;5476;51.540;7.186;2023-04-30T02:23:39;8.20;99.90
10846;DHT22;5476;51.540;7.186;2023-04-30T02:26:09;9.20;99.90
10846;DHT22;5476;51.540;7.186;2023-04-30T02:28:41;7.80;99.90
10846;DHT22;5476;51.540;7.186;2023-04-30T02:31:11;10.00;99.90
10846;DHT22;5476;51.540;7.186;2023-04-30T02:33:47;8.40;99.90
10846;DHT22;5476;51.540;7.186;2023-04-30T02:36:22;9.10;99.90
10846;DHT22;5476;51.540;7.186;2023-04-30T02:38:52;9.10;99.90
10846;DHT22;5476;51.540;7.186;2023-04-30T02:41:23;9.90;99.90
10846;DHT22;5476;51.540;7.186;2023-04-30T02:43:51;9.00;99.90
10846;DHT22;5476;51.540;7.186;2023-04-30T02:46:20;9.50;99.90
10846;DHT22;5476;51.540;7.186;2023-04-30T02:48:50;8.90;99.90
10846;DHT22;5476;51.540;7.186;2023-04-30T02:51:19;9.00;99.90
10846;DHT22;5476;51.540;7.186;2023-04-30T02:53:47;10.30;99.90
10846;DHT22;5476;51.540;7.186;2023-04-30T02:56:15;9.80;99.90
10846;DHT22;5476;51.540;7.186;2023-04-30T02:58:46;8.50;99.90
10846;DHT22;5476;51.540;7.186;2023-04-30T03:01:21;10.10;99.90
10846;DHT22;5476;51.540;7.186;2023-04-30T03:04:04;9.90;99.90
10846;DHT22;5476;51.540;7.186;2023-04-30T03:06:35;8.90;99.90
10846;DHT22;5476;51.540;7.186;2023-04-30T03:09:06;8.80;99.90
10846;DHT22;5476;51.540;7.186;2023-04-30T03:11:37;7.40;99.90
10846;DHT22;5476;51.540;7.186;2023-04-30T03:14:09;10.20;99.90
10846;DHT22;5476;51.540;7.186;2023-04-30T03:16:44;7.30;99.90
10846;DHT22;5476;51.540;7.186;2023-04-30T03:19:20;8.20;99.90
10846;DHT22;5476;51.540;7.186;2023-04-30T03:21:55;8.00;99.90
10846;DHT22;5476;51.540;7.186;2023-04-30T03:24:25;8.70;99.90
10846;DHT22;5476;51.540;7.186;2023-04-30T03:26:56;7.30;99.90
10846;DHT22;5476;51.540;7.186;2023-04-30T03:29:29;8.60;99.90
10846;DHT22;5476;51.540;7.186;2023-04-30T03:31:58;8.70;99.90
10846;DHT22;5476;51.540;7.186;2023-04-30T03:34:29;8.30;99.90
10846;DHT22;5476;51.540;7.186;2023-04-30T03:36:59;8.60;99.90
10846;DHT22;5476;51.540;7.186;2023-04-30T03:39:28;9.40;99.90
10846;DHT22;5476;51.540;7.186;2023-04-30T03:41:57;8.60;99.90
10846;DHT22;5476;51.540;7.186;2023-04-30T03:44:28;9.70;99.90
10846;DHT22;5476;51.540;7.186;2023-04-30T03:46:55;8.60;99.90
10846;DHT22;5476;51.540;7.186;2023-04-30T03:49:24;9.70;99.90
10846;DHT22;5476;51.540;7.186;2023-04-30T03:51:53;9.10;99.90
10846;DHT22;5476;51.540;7.186;2023-04-30T03:54:22;10.00;99.90
10846;DHT22;5476;51.540;7.186;2023-04-30T03:56:50;6.90;99.90
10846;DHT22;5476;51.540;7.186;2023-04-30T03:59:17;8.50;99.90
10846;DHT22;5476;51.540;7.186;2023-04-30T04:01:45;8.40;99.90
10846;DHT22;5476;51.540;7.186;2023-04-30T04:04:14;8.50;99.90
10846;DHT22;5476;51.540;7.186;2023-04-30T04:06:48;8.40;99.90
10846;DHT22;5476;51.540;7.186;2023-04-30T04:09:18;7.10;99.90
10846;DHT22;5476;51.540;7.186;2023-04-30T04:11:48;6.90;99.90
10846;DHT22;5476;51.540;7.186;2023-04-30T04:14:17;9.30;99.90
10846;DHT22;5476;51.540;7.186;2023-04-30T04:16:48;9.70;99.90
10846;DHT22;5476;51.540;7.186;2023-04-30T04:19:17;9.70;99.90
10846;DHT22;5476;51.540;7.186;2023-04-30T04:21:49;7.80;99.90
10846;DHT22;5476;51.540;7.186;2023-04-30T04:24:21;8.70;99.90
10846;DHT22;5476;51.540;7.186;2023-04-30T04:26:51;8.40;99.90
10846;DHT22;5476;51.540;7.186;2023-04-30T04:29:20;7.10;99.90
10846;DHT22;5476;51.540;7.186;2023-04-30T04:31:50;8.30;99.90
10846;DHT22;5476;51.540;7.186;2023-04-30T04:34:20;8.30;99.90
10846;DHT22;5476;51.540;7.186;2023-04-30T04:36:47;8.20;99.90
10846;DHT22;5476;51.540;7.186;2023-04-30T04:39:14;8.40;99.90
10846;DHT22;5476;51.540;7.186;2023-04-30T04:41:42;9.70;99.90
10846;DHT22;5476;51.540;7.186;2023-04-30T04:44:10;9.60;99.90
10846;DHT22;5476;51.540;7.186;2023-04-30T04:46:37;9.20;99.90
10846;DHT22;5476;51.540;7.186;2023-04-30T04:49:06;8.20;99.90
10846;DHT22;5476;51.540;7.186;2023-04-30T04:51:34;8.10;99.90
10846;DHT22;5476;51.540;7.186;2023-04-30T04:54:01;8.30;99.90
10846;DHT22;5476;51.540;7.186;2023-04-30T04:56:28;9.60;99.90
10846;DHT22;5476;51.540;7.186;2023-04-30T04:58:57;9.90;99.90
10846;DHT22;5476;51.540;7.186;2023-04-30T05:01:25;9.80;99.90
10846;DHT22;5476;51.540;7.186;2023-04-30T05:03:55;8.30;99.90
10846;DHT22;5476;51.540;7.186;2023-04-30T05:06:22;8.60;99.90
10846;DHT22;5476;51.540;7.186;2023-04-30T05:08:49;9.80;99.90
10846;DHT22;5476;51.540;7.186;2023-04-30T05:11:16;9.10;99.90
10846;DHT22;5476;51.540;7.186;2023-04-30T05:13:43;9.50;99.90
10846;DHT22;5476;51.540;7.186;2023-04-30T05:16:11;7.30;99.90
10846;DHT22;5476;51.540;7.186;2023-04-30T05:18:39;9.20;99.90
10846;DHT22;5476;51.540;7.186;2023-04-30T05:21:06;9.20;99.90
10846;DHT22;5476;51.540;7.186;2023-04-30T05:23:33;9.00;99.90
10846;DHT22;5476;51.540;7.186;2023-04-30T05:26:01;10.40;99.90
10846;DHT22;5476;51.540;7.186;2023-04-30T05:28:28;9.20;99.90
10846;DHT22;5476;51.540;7.186;2023-04-30T05:30:55;9.50;99.90
10846;DHT22;5476;51.540;7.186;2023-04-30T05:33:23;9.60;99.90
10846;DHT22;5476;51.540;7.186;2023-04-30T05:35:50;8.30;99.90
10846;DHT22;5476;51.540;7.186;2023-04-30T05:38:17;8.80;99.90
10846;DHT22;5476;51.540;7.186;2023-04-30T05:40:45;9.80;99.90
10846;DHT22;5476;51.540;7.186;2023-04-30T05:43:11;8.50;99.90
10846;DHT22;5476;51.540;7.186;2023-04-30T05:45:38;9.40;99.90
10846;DHT22;5476;51.540;7.186;2023-04-30T05:48:06;9.30;99.90
10846;DHT22;5476;51.540;7.186;2023-04-30T05:50:35;8.50;99.90
10846;DHT22;5476;51.540;7.186;2023-04-30T05:53:02;8.50;99.90
10846;DHT22;5476;51.540;7.186;2023-04-30T05:55:30;8.50;99.90
10846;DHT22;5476;51.540;7.186;2023-04-30T05:57:57;8.60;99.90
10846;DHT22;5476;51.540;7.186;2023-04-30T06:00:24;10.10;99.90
10846;DHT22;5476;51.540;7.186;2023-04-30T06:02:52;8.70;99.90
10846;DHT22;5476;51.540;7.186;2023-04-30T06:05:28;9.80;99.90
10846;DHT22;5476;51.540;7.186;2023-04-30T06:08:08;7.40;99.90
10846;DHT22;5476;51.540;7.186;2023-04-30T06:10:36;8.90;99.90
10846;DHT22;5476;51.540;7.186;2023-04-30T06:13:06;9.00;99.90
10846;DHT22;5476;51.540;7.186;2023-04-30T06:15:38;10.30;99.90
10846;DHT22;5476;51.540;7.186;2023-04-30T06:18:08;10.30;99.90
10846;DHT22;5476;51.540;7.186;2023-04-30T06:20:39;7.60;99.90
10846;DHT22;5476;51.540;7.186;2023-04-30T06:23:11;7.60;99.90
10846;DHT22;5476;51.540;7.186;2023-04-30T06:25:43;9.20;99.90
10846;DHT22;5476;51.540;7.186;2023-04-30T06:28:15;8.00;99.90
10846;DHT22;5476;51.540;7.186;2023-04-30T06:30:43;10.50;99.90
10846;DHT22;5476;51.540;7.186;2023-04-30T06:33:19;11.20;99.90
10846;DHT22;5476;51.540;7.186;2023-04-30T06:35:51;8.80;99.90
10846;DHT22;5476;51.540;7.186;2023-04-30T06:38:24;9.50;99.90
10846;DHT22;5476;51.540;7.186;2023-04-30T06:40:59;9.70;99.90
10846;DHT22;5476;51.540;7.186;2023-04-30T06:43:36;8.30;99.90
10846;DHT22;5476;51.540;7.186;2023-04-30T06:46:11;9.60;99.90
10846;DHT22;5476;51.540;7.186;2023-04-30T06:49:07;9.70;99.90
10846;DHT22;5476;51.540;7.186;2023-04-30T06:51:34;10.30;99.90
10846;DHT22;5476;51.540;7.186;2023-04-30T06:54:01;9.90;99.90
10846;DHT22;5476;51.540;7.186;2023-04-30T06:56:27;9.90;99.90
10846;DHT22;5476;51.540;7.186;2023-04-30T06:58:55;10.00;99.90
10846;DHT22;5476;51.540;7.186;2023-04-30T07:01:26;10.10;99.90
10846;DHT22;5476;51.540;7.186;2023-04-30T07:03:53;10.10;99.90
10846;DHT22;5476;51.540;7.186;2023-04-30T07:06:21;10.40;99.90
10846;DHT22;5476;51.540;7.186;2023-04-30T07:08:48;10.30;99.90
10846;DHT22;5476;51.540;7.186;2023-04-30T07:11:15;10.40;99.90
10846;DHT22;5476;51.540;7.186;2023-04-30T07:13:42;10.40;99.90
10846;DHT22;5476;51.540;7.186;2023-04-30T07:16:08;10.50;99.90
10846;DHT22;5476;51.540;7.186;2023-04-30T07:18:37;10.50;99.90
10846;DHT22;5476;51.540;7.186;2023-04-30T07:21:05;10.60;99.90
10846;DHT22;5476;51.540;7.186;2023-04-30T07:23:34;10.60;99.90
10846;DHT22;5476;51.540;7.186;2023-04-30T07:26:01;10.20;99.90
10846;DHT22;5476;51.540;7.186;2023-04-30T07:28:28;10.80;99.90
10846;DHT22;5476;51.540;7.186;2023-04-30T07:30:55;10.90;99.90
10846;DHT22;5476;51.540;7.186;2023-04-30T07:33:22;10.90;99.90
10846;DHT22;5476;51.540;7.186;2023-04-30T07:35:48;11.00;99.90
10846;DHT22;5476;51.540;7.186;2023-04-30T07:38:16;11.10;99.90
10846;DHT22;5476;51.540;7.186;2023-04-30T07:40:45;11.20;99.90
10846;DHT22;5476;51.540;7.186;2023-04-30T07:43:11;11.80;99.90
10846;DHT22;5476;51.540;7.186;2023-04-30T07:45:38;11.40;99.90
10846;DHT22;5476;51.540;7.186;2023-04-30T07:48:07;11.50;99.90
10846;DHT22;5476;51.540;7.186;2023-04-30T07:50:33;11.60;99.90
10846;DHT22;5476;51.540;7.186;2023-04-30T07:53:01;11.60;99.90
10846;DHT22;5476;51.540;7.186;2023-04-30T07:55:29;11.70;99.90
10846;DHT22;5476;51.540;7.186;2023-04-30T07:57:57;11.80;99.90
10846;DHT22;5476;51.540;7.186;2023-04-30T08:00:26;11.90;99.90
10846;DHT22;5476;51.540;7.186;2023-04-30T08:02:55;12.00;99.90
10846;DHT22;5476;51.540;7.186;2023-04-30T08:05:22;12.10;99.90
10846;DHT22;5476;51.540;7.186;2023-04-30T08:07:49;12.70;99.90
10846;DHT22;5476;51.540;7.186;2023-04-30T08:10:16;12.30;99.90
10846;DHT22;5476;51.540;7.186;2023-04-30T08:12:43;12.30;99.90
10846;DHT22;5476;51.540;7.186;2023-04-30T08:15:11;12.40;99.90
10846;DHT22;5476;51.540;7.186;2023-04-30T08:17:38;12.50;99.90
10846;DHT22;5476;51.540;7.186;2023-04-30T08:20:06;12.60;99.90
10846;DHT22;5476;51.540;7.186;2023-04-30T08:22:34;12.70;99.90
10846;DHT22;5476;51.540;7.186;2023-04-30T08:25:00;12.80;99.90
10846;DHT22;5476;51.540;7.186;2023-04-30T08:27:29;13.00;99.90
10846;DHT22;5476;51.540;7.186;2023-04-30T08:29:56;13.10;99.90
10846;DHT22;5476;51.540;7.186;2023-04-30T08:32:25;13.20;99.90
10846;DHT22;5476;51.540;7.186;2023-04-30T08:34:53;13.40;99.90
10846;DHT22;5476;51.540;7.186;2023-04-30T08:37:20;13.50;99.90
10846;DHT22;5476;51.540;7.186;2023-04-30T08:39:47;13.60;99.90
10846;DHT22;5476;51.540;7.186;2023-04-30T08:42:14;13.70;99.90
10846;DHT22;5476;51.540;7.186;2023-04-30T08:44:43;13.80;99.90
10846;DHT22;5476;51.540;7.186;2023-04-30T08:47:11;14.00;99.90
10846;DHT22;5476;51.540;7.186;2023-04-30T08:49:40;14.10;99.90
10846;DHT22;5476;51.540;7.186;2023-04-30T08:52:07;14.40;99.90
10846;DHT22;5476;51.540;7.186;2023-04-30T08:54:35;14.30;99.90
10846;DHT22;5476;51.540;7.186;2023-04-30T08:57:03;14.40;99.90
10846;DHT22;5476;51.540;7.186;2023-04-30T08:59:30;14.60;99.90
10846;DHT22;5476;51.540;7.186;2023-04-30T09:01:59;14.80;99.90
10846;DHT22;5476;51.540;7.186;2023-04-30T09:04:26;15.00;99.90
10846;DHT22;5476;51.540;7.186;2023-04-30T09:06:55;15.10;99.90
10846;DHT22;5476;51.540;7.186;2023-04-30T09:09:27;15.20;99.90
10846;DHT22;5476;51.540;7.186;2023-04-30T09:12:11;15.50;99.90
10846;DHT22;5476;51.540;7.186;2023-04-30T09:14:39;15.70;99.90
10846;DHT22;5476;51.540;7.186;2023-04-30T09:17:07;15.80;99.90
10846;DHT22;5476;51.540;7.186;2023-04-30T09:19:34;16.00;99.90
10846;DHT22;5476;51.540;7.186;2023-04-30T09:22:19;16.20;99.90
10846;DHT22;5476;51.540;7.186;2023-04-30T09:24:48;16.50;99.90
10846;DHT22;5476;51.540;7.186;2023-04-30T09:27:16;16.60;99.90
10846;DHT22;5476;51.540;7.186;2023-04-30T09:29:43;16.80;99.90
10846;DHT22;5476;51.540;7.186;2023-04-30T09:32:11;17.00;99.90
10846;DHT22;5476;51.540;7.186;2023-04-30T09:34:39;17.30;99.90
10846;DHT22;5476;51.540;7.186;2023-04-30T09:37:07;17.50;99.90
10846;DHT22;5476;51.540;7.186;2023-04-30T09:39:45;17.80;99.90
10846;DHT22;5476;51.540;7.186;2023-04-30T09:42:12;18.00;99.90
10846;DHT22;5476;51.540;7.186;2023-04-30T09:44:40;18.20;99.90
10846;DHT22;5476;51.540;7.186;2023-04-30T09:47:10;18.40;99.90
10846;DHT22;5476;51.540;7.186;2023-04-30T09:49:40;18.60;99.90
10846;DHT22;5476;51.540;7.186;2023-04-30T09:52:08;18.90;99.90
10846;DHT22;5476;51.540;7.186;2023-04-30T09:54:37;19.20;99.90
10846;DHT22;5476;51.540;7.186;2023-04-30T09:57:04;19.50;99.90
10846;DHT22;5476;51.540;7.186;2023-04-30T09:59:34;19.60;99.90
10846;DHT22;5476;51.540;7.186;2023-04-30T10:02:04;19.70;99.90
10846;DHT22;5476;51.540;7.186;2023-04-30T10:04:34;19.90;99.90
10846;DHT22;5476;51.540;7.186;2023-04-30T10:07:03;20.10;99.90
10846;DHT22;5476;51.540;7.186;2023-04-30T10:09:39;20.30;99.90
10846;DHT22;5476;51.540;7.186;2023-04-30T10:12:12;20.50;99.90
10846;DHT22;5476;51.540;7.186;2023-04-30T10:14:44;20.80;99.70
10846;DHT22;5476;51.540;7.186;2023-04-30T10:17:15;20.90;98.50
10846;DHT22;5476;51.540;7.186;2023-04-30T10:19:45;21.10;98.70
10846;DHT22;5476;51.540;7.186;2023-04-30T10:22:13;21.20;97.20
10846;DHT22;5476;51.540;7.186;2023-04-30T10:24:42;21.30;96.10
10846;DHT22;5476;51.540;7.186;2023-04-30T10:27:11;21.30;94.80
10846;DHT22;5476;51.540;7.186;2023-04-30T10:29:39;21.50;95.00
10846;DHT22;5476;51.540;7.186;2023-04-30T10:32:06;21.60;92.90
10846;DHT22;5476;51.540;7.186;2023-04-30T10:34:43;21.60;92.30
10846;DHT22;5476;51.540;7.186;2023-04-30T10:37:17;21.90;91.80
10846;DHT22;5476;51.540;7.186;2023-04-30T10:39:48;22.70;89.60
10846;DHT22;5476;51.540;7.186;2023-04-30T10:42:16;23.00;87.50
10846;DHT22;5476;51.540;7.186;2023-04-30T10:44:43;23.30;84.90
10846;DHT22;5476;51.540;7.186;2023-04-30T10:47:10;23.20;85.40
10846;DHT22;5476;51.540;7.186;2023-04-30T10:49:37;23.30;82.60
10846;DHT22;5476;51.540;7.186;2023-04-30T10:52:05;23.50;82.90
10846;DHT22;5476;51.540;7.186;2023-04-30T10:54:35;23.80;81.60
10846;DHT22;5476;51.540;7.186;2023-04-30T10:57:11;24.00;77.90
10846;DHT22;5476;51.540;7.186;2023-04-30T10:59:42;24.30;75.80
10846;DHT22;5476;51.540;7.186;2023-04-30T11:02:11;24.40;75.10
10846;DHT22;5476;51.540;7.186;2023-04-30T11:05:10;24.50;75.00
10846;DHT22;5476;51.540;7.186;2023-04-30T11:07:44;24.60;71.10
10846;DHT22;5476;51.540;7.186;2023-04-30T11:10:13;23.00;73.50
10846;DHT22;5476;51.540;7.186;2023-04-30T11:12:46;24.20;75.20
10846;DHT22;5476;51.540;7.186;2023-04-30T11:15:16;24.00;75.40
10846;DHT22;5476;51.540;7.186;2023-04-30T11:17:44;23.70;76.50
10846;DHT22;5476;51.540;7.186;2023-04-30T11:20:12;23.50;79.00
10846;DHT22;5476;51.540;7.186;2023-04-30T11:22:39;23.30;79.60
10846;DHT22;5476;51.540;7.186;2023-04-30T11:25:08;23.20;80.90
10846;DHT22;5476;51.540;7.186;2023-04-30T11:27:39;23.00;80.30
10846;DHT22;5476;51.540;7.186;2023-04-30T11:30:17;22.70;81.30
10846;DHT22;5476;51.540;7.186;2023-04-30T11:32:46;22.00;82.90
10846;DHT22;5476;51.540;7.186;2023-04-30T11:35:17;22.40;83.20
10846;DHT22;5476;51.540;7.186;2023-04-30T11:37:44;23.30;86.10
10846;DHT22;5476;51.540;7.186;2023-04-30T11:40:14;22.20;87.40
10846;DHT22;5476;51.540;7.186;2023-04-30T11:42:42;22.20;85.90
10846;DHT22;5476;51.540;7.186;2023-04-30T11:45:10;22.10;87.70
10846;DHT22;5476;51.540;7.186;2023-04-30T11:47:42;22.10;87.40
10846;DHT22;5476;51.540;7.186;2023-04-30T11:50:11;22.10;86.80
10846;DHT22;5476;51.540;7.186;2023-04-30T11:52:38;22.00;87.80
10846;DHT22;5476;51.540;7.186;2023-04-30T11:55:11;22.20;86.70
10846;DHT22;5476;51.540;7.186;2023-04-30T11:57:40;22.40;84.90
10846;DHT22;5476;51.540;7.186;2023-04-30T12:00:10;22.80;82.70
10846;DHT22;5476;51.540;7.186;2023-04-30T12:02:37;23.10;83.30
10846;DHT22;5476;51.540;7.186;2023-04-30T12:05:11;23.70;80.90
10846;DHT22;5476;51.540;7.186;2023-04-30T12:07:44;24.00;76.30
10846;DHT22;5476;51.540;7.186;2023-04-30T12:10:12;24.20;75.90
10846;DHT22;5476;51.540;7.186;2023-04-30T12:12:41;24.50;75.50
10846;DHT22;5476;51.540;7.186;2023-04-30T12:15:13;24.80;73.10
10846;DHT22;5476;51.540;7.186;2023-04-30T12:17:42;24.60;69.80
10846;DHT22;5476;51.540;7.186;2023-04-30T12:20:12;24.50;69.30
10846;DHT22;5476;51.540;7.186;2023-04-30T12:22:40;24.70;70.00
10846;DHT22;5476;51.540;7.186;2023-04-30T12:25:10;25.00;69.90
10846;DHT22;5476;51.540;7.186;2023-04-30T12:27:39;25.30;69.10
10846;DHT22;5476;51.540;7.186;2023-04-30T12:30:07;25.40;68.30
10846;DHT22;5476;51.540;7.186;2023-04-30T12:32:43;25.50;68.00
10846;DHT22;5476;51.540;7.186;2023-04-30T12:35:15;25.60;66.00
10846;DHT22;5476;51.540;7.186;2023-04-30T12:37:43;25.60;66.10
10846;DHT22;5476;51.540;7.186;2023-04-30T12:40:11;25.60;65.90
10846;DHT22;5476;51.540;7.186;2023-04-30T12:42:39;25.60;64.60
10846;DHT22;5476;51.540;7.186;2023-04-30T12:45:07;25.70;65.00
10846;DHT22;5476;51.540;7.186;2023-04-30T12:47:37;26.00;65.00
10846;DHT22;5476;51.540;7.186;2023-04-30T12:50:08;26.20;64.90
10846;DHT22;5476;51.540;7.186;2023-04-30T12:52:38;26.40;62.70
10846;DHT22;5476;51.540;7.186;2023-04-30T12:55:16;26.50;62.50
10846;DHT22;5476;51.540;7.186;2023-04-30T12:58:05;26.70;61.30
10846;DHT22;5476;51.540;7.186;2023-04-30T13:00:48;26.80;60.60
10846;DHT22;5476;51.540;7.186;2023-04-30T13:03:16;26.80;59.60
10846;DHT22;5476;51.540;7.186;2023-04-30T13:05:46;26.70;61.10
10846;DHT22;5476;51.540;7.186;2023-04-30T13:08:15;26.60;60.50
10846;DHT22;5476;51.540;7.186;2023-04-30T13:10:42;26.60;60.40
10846;DHT22;5476;51.540;7.186;2023-04-30T13:13:11;26.40;60.30
10846;DHT22;5476;51.540;7.186;2023-04-30T13:15:38;26.00;60.10
10846;DHT22;5476;51.540;7.186;2023-04-30T13:18:06;25.90;60.40
10846;DHT22;5476;51.540;7.186;2023-04-30T13:20:34;26.00;60.50
10846;DHT22;5476;51.540;7.186;2023-04-30T13:23:01;26.30;61.70
10846;DHT22;5476;51.540;7.186;2023-04-30T13:25:30;26.40;61.20
10846;DHT22;5476;51.540;7.186;2023-04-30T13:27:59;26.30;60.40
10846;DHT22;5476;51.540;7.186;2023-04-30T13:30:27;26.20;59.90
10846;DHT22;5476;51.540;7.186;2023-04-30T13:32:54;26.30;60.00
10846;DHT22;5476;51.540;7.186;2023-04-30T13:35:21;26.30;59.30
10846;DHT22;5476;51.540;7.186;2023-04-30T13:37:49;26.30;59.10
10846;DHT22;5476;51.540;7.186;2023-04-30T13:40:17;26.30;58.40
10846;DHT22;5476;51.540;7.186;2023-04-30T13:42:47;26.20;59.70
10846;DHT22;5476;51.540;7.186;2023-04-30T13:45:14;26.30;60.40
10846;DHT22;5476;51.540;7.186;2023-04-30T13:47:42;26.40;60.00
10846;DHT22;5476;51.540;7.186;2023-04-30T13:50:09;26.60;59.40
10846;DHT22;5476;51.540;7.186;2023-04-30T13:52:36;26.50;60.00
10846;DHT22;5476;51.540;7.186;2023-04-30T13:55:04;26.10;59.90
10846;DHT22;5476;51.540;7.186;2023-04-30T13:57:31;25.60;59.10
10846;DHT22;5476;51.540;7.186;2023-04-30T14:00:00;25.40;60.30
10846;DHT22;5476;51.540;7.186;2023-04-30T14:02:27;26.20;61.50
10846;DHT22;5476;51.540;7.186;2023-04-30T14:04:54;25.40;60.60
10846;DHT22;5476;51.540;7.186;2023-04-30T14:07:22;25.20;60.00
10846;DHT22;5476;51.540;7.186;2023-04-30T14:09:49;24.90;60.00
10846;DHT22;5476;51.540;7.186;2023-04-30T14:12:16;24.80;60.30
10846;DHT22;5476;51.540;7.186;2023-04-30T14:14:43;24.80;61.00
10846;DHT22;5476;51.540;7.186;2023-04-30T14:17:11;25.00;61.40
10846;DHT22;5476;51.540;7.186;2023-04-30T14:19:38;25.20;61.50
10846;DHT22;5476;51.540;7.186;2023-04-30T14:22:05;25.40;61.10
10846;DHT22;5476;51.540;7.186;2023-04-30T14:24:34;25.30;60.00
10846;DHT22;5476;51.540;7.186;2023-04-30T14:27:03;25.10;60.10
10846;DHT22;5476;51.540;7.186;2023-04-30T14:29:30;24.80;60.70
10846;DHT22;5476;51.540;7.186;2023-04-30T14:31:56;24.80;61.10
10846;DHT22;5476;51.540;7.186;2023-04-30T14:34:25;24.80;61.40
10846;DHT22;5476;51.540;7.186;2023-04-30T14:36:52;24.70;61.10
10846;DHT22;5476;51.540;7.186;2023-04-30T14:39:19;23.50;60.50
10846;DHT22;5476;51.540;7.186;2023-04-30T14:41:46;24.70;61.20
10846;DHT22;5476;51.540;7.186;2023-04-30T14:44:13;24.80;61.00
10846;DHT22;5476;51.540;7.186;2023-04-30T14:46:40;24.50;60.90
10846;DHT22;5476;51.540;7.186;2023-04-30T14:49:07;24.30;60.80
10846;DHT22;5476;51.540;7.186;2023-04-30T14:51:36;24.20;61.30
10846;DHT22;5476;51.540;7.186;2023-04-30T14:54:03;24.30;61.60
10846;DHT22;5476;51.540;7.186;2023-04-30T14:56:30;24.60;61.60
10846;DHT22;5476;51.540;7.186;2023-04-30T14:58:57;24.80;61.50
10846;DHT22;5476;51.540;7.186;2023-04-30T15:01:23;25.10;61.60
10846;DHT22;5476;51.540;7.186;2023-04-30T15:03:50;25.30;60.80
10846;DHT22;5476;51.540;7.186;2023-04-30T15:06:17;25.40;60.30
10846;DHT22;5476;51.540;7.186;2023-04-30T15:08:46;25.10;59.90
10846;DHT22;5476;51.540;7.186;2023-04-30T15:11:13;24.60;60.00
10846;DHT22;5476;51.540;7.186;2023-04-30T15:13:41;24.30;60.90
10846;DHT22;5476;51.540;7.186;2023-04-30T15:16:08;24.10;61.40
10846;DHT22;5476;51.540;7.186;2023-04-30T15:18:35;24.00;61.70
10846;DHT22;5476;51.540;7.186;2023-04-30T15:21:02;24.10;62.00
10846;DHT22;5476;51.540;7.186;2023-04-30T15:23:29;24.40;62.50
10846;DHT22;5476;51.540;7.186;2023-04-30T15:25:57;24.50;61.40
10846;DHT22;5476;51.540;7.186;2023-04-30T15:28:24;24.50;61.20
10846;DHT22;5476;51.540;7.186;2023-04-30T15:30:51;24.50;62.30
10846;DHT22;5476;51.540;7.186;2023-04-30T15:33:19;24.50;61.10
10846;DHT22;5476;51.540;7.186;2023-04-30T15:35:48;24.50;60.50
10846;DHT22;5476;51.540;7.186;2023-04-30T15:38:15;24.50;61.10
10846;DHT22;5476;51.540;7.186;2023-04-30T15:40:42;24.50;61.50
10846;DHT22;5476;51.540;7.186;2023-04-30T15:43:11;24.40;61.80
10846;DHT22;5476;51.540;7.186;2023-04-30T15:45:38;24.20;61.50
10846;DHT22;5476;51.540;7.186;2023-04-30T15:48:08;24.10;62.00
10846;DHT22;5476;51.540;7.186;2023-04-30T15:50:35;24.10;61.90
10846;DHT22;5476;51.540;7.186;2023-04-30T15:53:02;24.20;62.00
10846;DHT22;5476;51.540;7.186;2023-04-30T15:55:29;24.20;61.40
10846;DHT22;5476;51.540;7.186;2023-04-30T15:57:58;24.00;61.40
10846;DHT22;5476;51.540;7.186;2023-04-30T16:00:26;23.80;60.90
10846;DHT22;5476;51.540;7.186;2023-04-30T16:02:54;23.80;61.20
10846;DHT22;5476;51.540;7.186;2023-04-30T16:05:21;23.80;62.20
10846;DHT22;5476;51.540;7.186;2023-04-30T16:07:48;23.80;62.50
10846;DHT22;5476;51.540;7.186;2023-04-30T16:10:15;23.80;63.00
10846;DHT22;5476;51.540;7.186;2023-04-30T16:12:44;23.80;62.90
10846;DHT22;5476;51.540;7.186;2023-04-30T16:15:11;24.00;63.30
10846;DHT22;5476;51.540;7.186;2023-04-30T16:17:39;24.00;63.00
10846;DHT22;5476;51.540;7.186;2023-04-30T16:20:10;23.90;63.00
10846;DHT22;5476;51.540;7.186;2023-04-30T16:22:37;23.70;62.10
10846;DHT22;5476;51.540;7.186;2023-04-30T16:25:05;23.50;61.90
10846;DHT22;5476;51.540;7.186;2023-04-30T16:27:34;23.40;63.00
10846;DHT22;5476;51.540;7.186;2023-04-30T16:30:01;23.40;63.10
10846;DHT22;5476;51.540;7.186;2023-04-30T16:32:30;23.30;63.20
10846;DHT22;5476;51.540;7.186;2023-04-30T16:34:58;23.20;63.30
10846;DHT22;5476;51.540;7.186;2023-04-30T16:37:26;23.30;63.40
10846;DHT22;5476;51.540;7.186;2023-04-30T16:39:53;23.20;63.20
10846;DHT22;5476;51.540;7.186;2023-04-30T16:42:20;23.00;63.70
10846;DHT22;5476;51.540;7.186;2023-04-30T16:44:51;23.00;64.00
10846;DHT22;5476;51.540;7.186;2023-04-30T16:47:19;22.90;62.80
10846;DHT22;5476;51.540;7.186;2023-04-30T16:49:47;22.90;63.60
10846;DHT22;5476;51.540;7.186;2023-04-30T16:52:15;22.90;64.10
10846;DHT22;5476;51.540;7.186;2023-04-30T16:54:43;22.80;64.20
10846;DHT22;5476;51.540;7.186;2023-04-30T16:57:10;22.80;64.30
10846;DHT22;5476;51.540;7.186;2023-04-30T16:59:36;22.80;64.50
10846;DHT22;5476;51.540;7.186;2023-04-30T17:02:04;22.70;64.00
10846;DHT22;5476;51.540;7.186;2023-04-30T17:04:31;22.60;64.50
10846;DHT22;5476;51.540;7.186;2023-04-30T17:06:58;22.40;64.50
10846;DHT22;5476;51.540;7.186;2023-04-30T17:09:26;22.40;64.60
10846;DHT22;5476;51.540;7.186;2023-04-30T17:11:54;22.40;64.80
10846;DHT22;5476;51.540;7.186;2023-04-30T17:14:21;22.50;65.30
10846;DHT22;5476;51.540;7.186;2023-04-30T17:16:48;22.50;65.10
10846;DHT22;5476;51.540;7.186;2023-04-30T17:19:14;22.40;64.90
10846;DHT22;5476;51.540;7.186;2023-04-30T17:21:42;21.40;64.40
10846;DHT22;5476;51.540;7.186;2023-04-30T17:24:09;22.30;65.30